Flight Track Log - Related Links

Times and Time Zones

All times are in EDT time to prevent confusion due to time zone crossing. See the N173DS flight status page for this flight to view local times or setup timezone preferences in your user account.


Time Position Orientation Groundspeed Altitude Reporting Facility
EDT Latitude Longitude Course Direction KTS MPH feet Rate Location/Type
Tue 09:38:06 AM 30.4386 -81.7217 190° South 219 252 3,800  Level Jacksonville Center
Tue 09:39:07 AM 30.3717 -81.7056 168° South 253 291 6,100 2,529 Climbing Jacksonville Center
Tue 09:40:07 AM 30.2964 -81.6872 168° South 268 308 8,900 2,459 Climbing Jacksonville Center
Tue 09:41:09 AM 30.2125 -81.6692 169° South 321 369 11,100 2,328 Climbing Jacksonville Center
Tue 09:42:03 AM 30.1375 -81.6819 188° South 315 362 13,400 1,934 Climbing Jacksonville Center
Tue 09:43:10 AM 30.0397 -81.7169 197° South 324 373 15,000 750 Climbing Jacksonville Center
Tue 09:44:11 AM 29.9442 -81.7492 196° South 358 412 15,000  Level Jacksonville Center
Tue 09:45:12 AM 29.8461 -81.7792 195° South 363 418 15,000 -51 Level Jacksonville Center
Tue 09:46:08 AM 29.7567 -81.8089 196° South 376 433 14,900 -52 Descending Jacksonville Center
Tue 09:47:08 AM 29.6567 -81.8433 197° South 376 433 14,900  Level Jacksonville Center
Tue 09:48:08 AM 29.5547 -81.8756 195° South 376 433 14,900  Level Jacksonville Center
Tue 09:49:09 AM 29.4547 -81.9100 197° South 376 433 14,900  Level Jacksonville Center
Tue 09:50:08 AM 29.3506 -81.9419 195° South 376 433 14,900  Level Jacksonville Center
Tue 09:51:08 AM 29.2508 -81.9764 197° South 376 433 14,900  Level Jacksonville Center
Tue 09:52:08 AM 29.1528 -82.0033 193° South 376 433 14,900  Level Jacksonville Center
Tue 09:53:08 AM 29.0800 -82.0278 196° South 365 420 14,900 -700 Level Jacksonville Center
Tue 09:54:08 AM 28.9947 -82.0831 210° Southwest 340 391 13,500 -1,000 Descending Jacksonville Center
Tue 09:55:08 AM 28.9075 -82.1406 210° Southwest 332 382 12,900 -300 Descending Jacksonville Center
Tue 09:56:08 AM 28.8306 -82.1981 213° Southwest 332 382 12,900 -356 Level Jacksonville Center
Tue 09:58:30 AM 28.6500 -82.2667 198° South 283 326 11,700 -564 Descending Tampa TRACON
Tue 09:59:30 AM 28.5833 -82.2500 168° South 286 329 11,000 -750 Descending Tampa TRACON
Tue 10:00:30 AM 28.5000 -82.2500 180° South 274 315 10,200 -1,150 Descending Tampa TRACON
Tue 10:01:30 AM 28.4167 -82.2500 180° South 273 314 8,700 -1,450 Descending Tampa TRACON
Tue 10:02:30 AM 28.3500 -82.2667 192° South 265 305 7,300 -1,200 Descending Tampa TRACON
Tue 10:03:30 AM 28.3000 -82.3167 221° Southwest 247 284 6,300 -1,150 Descending Tampa TRACON
Tue 10:04:30 AM 28.2667 -82.3833 240° Southwest 249 287 5,000 -1,050 Descending Tampa TRACON
Tue 10:05:30 AM 28.2500 -82.4500 254° West 212 244 4,200 -800 Descending Tampa TRACON
Tue 10:06:30 AM 28.2333 -82.5000 249° West 175 201 3,400 -600 Descending Tampa TRACON
Tue 10:07:30 AM 28.1833 -82.5167 196° South 162 186 3,000 -200 Descending Tampa TRACON
Tue 10:08:30 AM 28.1500 -82.5167 180° South 153 176 3,000 -400 Level Tampa TRACON
Tue 10:09:30 AM 28.1000 -82.5333 196° South 152 175 2,200 -750 Descending Tampa TRACON
Tue 10:10:30 AM 28.0500 -82.5333 180° South 149 171 1,500 -750 Descending Tampa TRACON
Tue 10:11:30 AM 28.0167 -82.5333 180° South 135 155 700 -800 Descending Tampa TRACON
Tue 10:13:00 AM 27.9755 -82.5332 170° South  Level Estimated

Login

Don't have an account? Register now (free) for customized features, flight alerts, and more!